createdAt,value
2019-05-16T00:00:19.291Z,8.50
2019-05-16T00:02:45.287Z,8.25
2019-05-16T00:05:11.240Z,8.44
2019-05-16T00:07:38.918Z,8.31
2019-05-16T00:10:04.952Z,8.31
2019-05-16T00:12:30.779Z,8.19
2019-05-16T00:14:58.201Z,8.25
2019-05-16T00:17:24.248Z,8.06
2019-05-16T00:19:50.139Z,8.06
2019-05-16T00:22:18.028Z,7.87
2019-05-16T00:24:43.789Z,7.75
2019-05-16T00:27:09.622Z,7.81
2019-05-16T00:29:35.515Z,7.81
2019-05-16T00:32:01.366Z,8.06
2019-05-16T00:34:27.943Z,7.75
2019-05-16T00:36:53.959Z,7.81
2019-05-16T00:39:22.647Z,7.81
2019-05-16T00:41:49.668Z,7.62
2019-05-16T00:44:15.536Z,7.56
2019-05-16T00:46:41.368Z,7.75
2019-05-16T00:49:08.316Z,7.69
2019-05-16T00:51:34.377Z,7.56
2019-05-16T00:54:00.222Z,7.44
2019-05-16T00:56:28.774Z,7.62
2019-05-16T00:58:54.318Z,7.56
2019-05-16T01:01:20.143Z,7.56
2019-05-16T01:03:48.170Z,7.56
2019-05-16T01:06:18.714Z,7.50
2019-05-16T01:08:41.476Z,7.56
2019-05-16T01:11:07.933Z,7.50
2019-05-16T01:13:33.984Z,7.37
2019-05-16T01:15:59.928Z,7.37
2019-05-16T01:18:25.823Z,7.37
2019-05-16T01:20:51.772Z,7.37
2019-05-16T01:23:18.163Z,7.50
2019-05-16T01:25:44.609Z,7.44
2019-05-16T01:28:10.428Z,7.44
2019-05-16T01:30:38.096Z,7.37
2019-05-16T01:33:04.003Z,7.25
2019-05-16T01:35:30.086Z,7.19
2019-05-16T01:37:57.966Z,7.31
2019-05-16T01:40:23.658Z,7.12
2019-05-16T01:42:49.505Z,7.25
2019-05-16T01:45:18.830Z,7.19
2019-05-16T01:47:44.890Z,7.31
2019-05-16T01:50:10.910Z,7.25
2019-05-16T01:52:38.395Z,7.31
2019-05-16T01:55:04.982Z,7.44
2019-05-16T01:57:30.834Z,7.44
2019-05-16T01:59:58.746Z,7.44
2019-05-16T02:02:24.429Z,7.44
2019-05-16T02:04:50.306Z,7.37
2019-05-16T02:07:18.240Z,7.44
2019-05-16T02:09:43.896Z,7.50
2019-05-16T02:12:10.838Z,7.50
2019-05-16T02:14:38.720Z,7.44
2019-05-16T02:17:04.531Z,7.56
2019-05-16T02:19:30.355Z,7.50
2019-05-16T02:21:56.231Z,7.62
2019-05-16T02:24:22.134Z,7.62
2019-05-16T02:26:52.045Z,7.56
2019-05-16T02:29:16.003Z,7.56
2019-05-16T02:31:42.387Z,7.62
2019-05-16T02:34:11.495Z,7.56
2019-05-16T02:36:36.116Z,7.62
2019-05-16T02:39:04.565Z,7.56
2019-05-16T02:41:31.122Z,7.62
2019-05-16T02:43:57.068Z,7.69
2019-05-16T02:46:22.966Z,7.69
2019-05-16T02:48:51.594Z,7.62
2019-05-16T02:51:16.542Z,7.44
2019-05-16T02:53:42.364Z,7.56
2019-05-16T02:56:11.844Z,7.50
2019-05-16T02:58:35.942Z,7.56
2019-05-16T03:01:02.257Z,7.75
2019-05-16T03:03:31.332Z,7.62
2019-05-16T03:05:56.284Z,7.69
2019-05-16T03:08:22.136Z,7.56
2019-05-16T03:10:52.134Z,7.50
2019-05-16T03:13:17.363Z,7.50
2019-05-16T03:15:43.782Z,7.62
2019-05-16T03:18:11.693Z,7.50
2019-05-16T03:20:40.558Z,7.50
2019-05-16T03:23:05.590Z,7.56
2019-05-16T03:25:31.430Z,7.44
2019-05-16T03:27:57.321Z,7.56
2019-05-16T03:30:24.123Z,7.50
2019-05-16T03:32:54.633Z,7.62
2019-05-16T03:35:23.926Z,7.62
2019-05-16T03:37:55.857Z,7.75
2019-05-16T03:40:15.993Z,7.75
2019-05-16T03:42:41.935Z,7.75
2019-05-16T03:45:10.742Z,7.75
2019-05-16T03:47:35.672Z,7.75
2019-05-16T03:50:01.804Z,7.75
2019-05-16T03:52:30.775Z,7.87
2019-05-16T03:54:55.367Z,7.94
2019-05-16T03:57:21.442Z,7.87
2019-05-16T03:59:47.318Z,7.87
2019-05-16T04:02:13.152Z,7.81
2019-05-16T04:04:41.613Z,7.87
2019-05-16T04:07:06.769Z,7.81
2019-05-16T04:09:32.626Z,7.94
2019-05-16T04:12:01.815Z,7.87
2019-05-16T04:14:26.833Z,7.87
2019-05-16T04:16:52.760Z,7.87
2019-05-16T04:19:21.093Z,7.94
2019-05-16T04:21:46.360Z,8.00
2019-05-16T04:24:12.684Z,7.94
2019-05-16T04:26:41.192Z,8.00
2019-05-16T04:29:06.522Z,7.94
2019-05-16T04:31:32.478Z,7.94
2019-05-16T04:34:01.135Z,7.94
2019-05-16T04:36:26.316Z,7.94
2019-05-16T04:38:52.172Z,7.94
2019-05-16T04:41:20.819Z,7.94
2019-05-16T04:43:45.751Z,7.94
2019-05-16T04:46:11.999Z,7.94
2019-05-16T04:48:41.388Z,8.06
2019-05-16T04:51:05.703Z,8.00
2019-05-16T04:53:31.971Z,8.06
2019-05-16T04:56:01.405Z,8.06
2019-05-16T04:58:25.691Z,8.13
2019-05-16T05:00:52.320Z,8.19
2019-05-16T05:03:20.894Z,8.13
2019-05-16T05:05:46.246Z,8.13
2019-05-16T05:08:12.069Z,8.19
2019-05-16T05:10:40.467Z,8.13
2019-05-16T05:13:05.633Z,8.06
2019-05-16T05:15:31.514Z,8.13
2019-05-16T05:17:57.372Z,8.06
2019-05-16T05:20:23.207Z,8.06
2019-05-16T05:22:50.003Z,8.13
2019-05-16T05:25:16.020Z,8.19
2019-05-16T05:27:41.982Z,8.13
2019-05-16T05:30:10.467Z,8.19
2019-05-16T05:32:36.184Z,8.25
2019-05-16T05:35:06.481Z,8.19
2019-05-16T05:37:32.311Z,8.19
2019-05-16T05:39:59.960Z,8.19
2019-05-16T05:42:30.368Z,8.19
2019-05-16T05:44:55.882Z,8.25
2019-05-16T05:47:21.711Z,8.25
2019-05-16T05:49:49.707Z,8.13
2019-05-16T05:52:15.332Z,8.25
2019-05-16T05:54:41.198Z,8.25
2019-05-16T05:57:07.035Z,8.25
2019-05-16T05:59:32.905Z,8.31
2019-05-16T06:02:00.852Z,8.31
2019-05-16T06:04:26.512Z,8.25
2019-05-16T06:06:52.385Z,8.31
2019-05-16T06:09:26.202Z,8.44
2019-05-16T06:11:46.028Z,8.25
2019-05-16T06:14:11.973Z,8.31
2019-05-16T06:16:40.066Z,8.44
2019-05-16T06:19:05.577Z,8.50
2019-05-16T06:21:33.150Z,8.31
2019-05-16T06:23:59.912Z,8.38
2019-05-16T06:26:25.938Z,8.25
2019-05-16T06:28:51.874Z,8.25
2019-05-16T06:31:17.768Z,8.25
2019-05-16T06:33:43.606Z,8.44
2019-05-16T06:36:10.986Z,8.38
2019-05-16T06:38:37.086Z,8.44
2019-05-16T06:41:03.017Z,8.44
2019-05-16T06:43:30.153Z,8.56
2019-05-16T06:46:00.599Z,8.50
2019-05-16T06:48:26.696Z,8.44
2019-05-16T06:50:52.560Z,8.50
2019-05-16T06:53:20.711Z,8.63
2019-05-16T06:55:46.185Z,8.50
2019-05-16T06:58:12.186Z,8.56
2019-05-16T07:00:40.473Z,8.56
2019-05-16T07:03:09.239Z,8.69
2019-05-16T07:05:33.962Z,8.69
2019-05-16T07:07:59.872Z,8.63
2019-05-16T07:10:25.764Z,8.69
2019-05-16T07:12:51.676Z,8.56
2019-05-16T07:15:17.733Z,8.63
2019-05-16T07:17:43.712Z,8.69
2019-05-16T07:20:10.456Z,8.56
2019-05-16T07:22:36.556Z,8.56
2019-05-16T07:25:04.799Z,8.63
2019-05-16T07:27:31.014Z,8.69
2019-05-16T07:29:58.465Z,8.75
2019-05-16T07:32:26.274Z,8.81
2019-05-16T07:34:52.129Z,8.69
2019-05-16T07:37:20.111Z,8.75
2019-05-16T07:39:45.955Z,8.81
2019-05-16T07:42:12.093Z,8.75
2019-05-16T07:44:38.043Z,8.63
2019-05-16T07:47:03.969Z,8.63
2019-05-16T07:49:30.429Z,8.69
2019-05-16T07:51:56.575Z,8.75
2019-05-16T07:54:22.461Z,8.69
2019-05-16T07:56:57.147Z,9.38
2019-05-16T07:59:16.061Z,9.44
2019-05-16T08:01:43.403Z,9.75
2019-05-16T08:04:10.604Z,9.75
2019-05-16T08:06:36.605Z,9.81
2019-05-16T08:09:07.554Z,9.56
2019-05-16T08:11:32.249Z,9.63
2019-05-16T08:14:00.801Z,9.63
2019-05-16T08:16:25.943Z,9.75
2019-05-16T08:18:51.803Z,9.63
2019-05-16T08:21:20.145Z,9.56
2019-05-16T08:23:45.445Z,9.69
2019-05-16T08:26:11.587Z,9.75
2019-05-16T08:28:37.525Z,9.44
2019-05-16T08:31:03.527Z,9.63
2019-05-16T08:33:31.979Z,9.69
2019-05-16T08:36:04.804Z,9.25
2019-05-16T08:38:30.835Z,9.56
2019-05-16T08:43:24.321Z,9.19
2019-05-16T08:45:51.524Z,9.13
2019-05-16T08:48:22.389Z,9.38
2019-05-16T08:50:05.960Z,9.56
2019-05-16T08:50:53.740Z,9.31
2019-05-16T08:53:13.928Z,9.38
2019-05-16T08:55:43.451Z,9.50
2019-05-16T08:58:13.264Z,9.44
2019-05-16T09:00:35.546Z,9.63
2019-05-16T09:03:01.829Z,9.63
2019-05-16T09:05:31.320Z,9.69
2019-05-16T09:08:01.397Z,9.88
2019-05-16T09:12:57.225Z,9.88
2019-05-16T09:15:27.323Z,9.56
2019-05-16T09:17:53.219Z,9.69
2019-05-16T09:20:19.384Z,9.63
2019-05-16T09:22:47.864Z,9.81
2019-05-16T09:25:13.199Z,9.81
2019-05-16T09:27:40.216Z,9.81
2019-05-16T09:30:09.194Z,9.81
2019-05-16T09:32:36.993Z,9.63
2019-05-16T09:35:07.585Z,9.56
2019-05-16T09:37:32.719Z,9.50
2019-05-16T09:39:59.003Z,9.50
2019-05-16T09:42:27.484Z,9.50
2019-05-16T09:44:52.600Z,9.50
2019-05-16T09:47:21.668Z,9.50
2019-05-16T09:49:47.792Z,9.44
2019-05-16T09:52:13.879Z,9.44
2019-05-16T09:54:39.772Z,9.69
2019-05-16T09:57:06.591Z,9.56
2019-05-16T09:59:32.582Z,9.56
2019-05-16T10:01:58.920Z,9.81
2019-05-16T10:04:26.723Z,9.88
2019-05-16T10:06:52.928Z,9.88
2019-05-16T10:09:18.886Z,9.88
2019-05-16T10:11:45.038Z,9.88
2019-05-16T10:14:11.180Z,9.88
2019-05-16T10:16:37.074Z,10.13
2019-05-16T10:19:02.998Z,10.13
2019-05-16T10:21:28.934Z,9.94
2019-05-16T10:23:56.432Z,9.75
2019-05-16T10:26:22.413Z,9.75
2019-05-16T10:28:48.248Z,9.69
2019-05-16T10:31:14.214Z,9.75
2019-05-16T10:33:40.067Z,9.63
2019-05-16T10:36:08.411Z,9.94
2019-05-16T10:38:33.778Z,9.94
2019-05-16T10:40:59.630Z,9.81
2019-05-16T10:43:26.437Z,9.75
2019-05-16T10:45:53.773Z,9.88
2019-05-16T10:48:20.948Z,9.88
2019-05-16T10:50:47.809Z,10.06
2019-05-16T10:53:39.852Z,10.00
2019-05-16T10:55:42.048Z,9.94
2019-05-16T10:58:07.984Z,9.88
2019-05-16T11:01:11.309Z,9.94
2019-05-16T11:03:01.884Z,9.94
2019-05-16T11:05:33.675Z,10.19
2019-05-16T11:07:57.411Z,10.31
2019-05-16T11:10:23.664Z,10.38
2019-05-16T11:12:54.095Z,10.38
2019-05-16T11:15:17.918Z,10.31
2019-05-16T11:17:43.760Z,10.25
2019-05-16T11:20:09.882Z,10.19
2019-05-16T11:22:37.010Z,10.19
2019-05-16T11:25:20.223Z,10.13
2019-05-16T11:27:34.027Z,10.13
2019-05-16T11:29:59.977Z,10.25
2019-05-16T11:32:26.980Z,10.25
2019-05-16T11:34:53.124Z,10.38
2019-05-16T11:37:18.958Z,10.25
2019-05-16T11:39:46.617Z,10.31
2019-05-16T11:42:12.531Z,10.44
2019-05-16T11:44:38.421Z,10.31
2019-05-16T11:47:04.331Z,10.31
2019-05-16T11:49:30.195Z,10.50
2019-05-16T11:51:57.911Z,10.44
2019-05-16T11:54:26.423Z,10.63
2019-05-16T11:56:51.560Z,10.63
2019-05-16T11:59:17.375Z,10.75
2019-05-16T12:01:43.251Z,10.69
2019-05-16T12:04:09.363Z,10.81
2019-05-16T12:06:37.269Z,10.88
2019-05-16T12:09:06.668Z,10.94
2019-05-16T12:11:38.277Z,10.81
2019-05-16T12:14:04.274Z,10.81
2019-05-16T12:16:30.163Z,10.75
2019-05-16T12:18:57.175Z,11.00
2019-05-16T12:21:23.116Z,10.75
2019-05-16T12:23:48.970Z,10.75
2019-05-16T12:26:17.564Z,10.94
2019-05-16T12:28:45.924Z,10.94
2019-05-16T12:31:11.925Z,10.94
2019-05-16T12:33:40.246Z,10.94
2019-05-16T12:36:37.870Z,10.94
2019-05-16T12:39:23.041Z,10.94
2019-05-16T12:41:49.369Z,11.12
2019-05-16T12:44:37.339Z,11.12
2019-05-16T12:47:03.421Z,11.25
2019-05-16T12:49:29.472Z,11.25
2019-05-16T12:51:57.027Z,11.31
2019-05-16T12:54:22.974Z,11.38
2019-05-16T12:56:53.821Z,11.50
2019-05-16T12:59:21.647Z,11.75
2019-05-16T13:01:48.150Z,11.69
2019-05-16T13:04:14.245Z,11.81
2019-05-16T13:06:40.246Z,11.94
2019-05-16T13:09:06.970Z,11.81
2019-05-16T13:11:33.037Z,11.81
2019-05-16T13:14:05.739Z,11.63
2019-05-16T13:16:28.238Z,11.81
2019-05-16T13:18:56.585Z,11.88
2019-05-16T13:21:22.852Z,11.69
2019-05-16T13:23:49.209Z,11.69
2019-05-16T13:26:17.507Z,11.81
2019-05-16T13:28:42.816Z,11.81
2019-05-16T13:31:08.757Z,11.69
2019-05-16T13:33:36.749Z,11.81
2019-05-16T13:36:02.870Z,11.75
2019-05-16T13:38:28.709Z,11.69
2019-05-16T13:40:57.041Z,11.75
2019-05-16T13:43:22.287Z,11.75
2019-05-16T13:45:48.139Z,12.06
2019-05-16T13:48:14.019Z,12.06
2019-05-16T13:50:40.076Z,11.88
2019-05-16T13:53:07.739Z,11.88
2019-05-16T13:55:33.933Z,11.69
2019-05-16T13:57:59.822Z,11.88
2019-05-16T14:00:27.962Z,11.81
2019-05-16T14:02:53.603Z,11.69
2019-05-16T14:05:19.451Z,11.44
2019-05-16T14:07:47.505Z,11.50
2019-05-16T14:10:13.790Z,11.56
2019-05-16T14:12:39.724Z,11.63
2019-05-16T14:15:08.007Z,11.75
2019-05-16T14:17:36.772Z,11.88
2019-05-16T14:20:13.811Z,11.94
2019-05-16T14:22:35.900Z,11.94
2019-05-16T14:25:02.999Z,12.06
2019-05-16T14:27:29.216Z,11.88
2019-05-16T14:29:57.735Z,11.94
2019-05-16T14:32:22.996Z,11.88
2019-05-16T14:34:51.637Z,11.88
2019-05-16T14:37:17.627Z,12.06
2019-05-16T14:39:43.688Z,12.06
2019-05-16T14:42:09.705Z,11.94
2019-05-16T14:44:58.182Z,12.00
2019-05-16T14:47:03.324Z,12.06
2019-05-16T14:49:29.300Z,12.13
2019-05-16T14:51:57.866Z,12.19
2019-05-16T14:54:26.870Z,12.00
2019-05-16T14:56:52.605Z,12.06
2019-05-16T14:59:18.570Z,12.13
2019-05-16T15:01:47.148Z,11.94
2019-05-16T15:04:12.526Z,12.13
2019-05-16T15:06:38.409Z,11.94
2019-05-16T15:09:07.526Z,11.94
2019-05-16T15:11:33.725Z,11.94
2019-05-16T15:13:59.648Z,12.13
2019-05-16T15:16:27.309Z,12.19
2019-05-16T15:18:53.283Z,12.06
2019-05-16T15:21:19.216Z,12.13
2019-05-16T15:23:45.050Z,12.19
2019-05-16T15:26:10.897Z,12.31
2019-05-16T15:28:37.786Z,12.06
2019-05-16T15:31:03.788Z,12.06
2019-05-16T15:33:30.184Z,12.00
2019-05-16T15:35:57.748Z,12.00
2019-05-16T15:38:23.856Z,11.94
2019-05-16T15:40:49.728Z,11.94
2019-05-16T15:43:18.016Z,11.94
2019-05-16T15:45:48.257Z,12.06
2019-05-16T15:48:11.412Z,12.06
2019-05-16T15:50:38.389Z,12.06
2019-05-16T15:53:04.423Z,12.06
2019-05-16T15:55:30.966Z,12.06
2019-05-16T15:57:57.435Z,12.00
2019-05-16T16:00:39.066Z,11.94
2019-05-16T16:03:07.022Z,12.00
2019-05-16T16:05:32.822Z,12.13
2019-05-16T16:07:58.726Z,12.06
2019-05-16T16:10:31.063Z,12.19
2019-05-16T16:12:57.043Z,12.25
2019-05-16T16:15:22.972Z,12.31
2019-05-16T16:17:48.969Z,12.25
2019-05-16T16:20:16.899Z,12.19
2019-05-16T16:22:42.574Z,12.25
2019-05-16T16:25:08.634Z,12.06
2019-05-16T16:27:34.707Z,12.00
2019-05-16T16:30:00.654Z,11.94
2019-05-16T16:32:26.953Z,11.94
2019-05-16T16:34:52.903Z,12.25
2019-05-16T16:37:18.860Z,12.00
2019-05-16T16:39:47.190Z,12.06
2019-05-16T16:42:12.833Z,12.00
2019-05-16T16:44:38.663Z,12.00
2019-05-16T16:47:06.777Z,11.88
2019-05-16T16:49:32.542Z,11.88
2019-05-16T16:51:58.392Z,11.94
2019-05-16T16:54:24.230Z,11.94
2019-05-16T16:56:50.101Z,11.81
2019-05-16T16:59:17.280Z,11.88
2019-05-16T17:01:43.378Z,12.00
2019-05-16T17:04:09.227Z,11.94
2019-05-16T17:06:37.435Z,11.88
2019-05-16T17:09:07.348Z,11.94
2019-05-16T17:11:37.005Z,11.88
2019-05-16T17:14:02.793Z,11.88
2019-05-16T17:16:29.186Z,11.81
2019-05-16T17:18:56.872Z,11.81
2019-05-16T17:21:22.821Z,11.81
2019-05-16T17:23:50.647Z,11.81
2019-05-16T17:26:16.524Z,11.81
2019-05-16T17:28:42.424Z,11.88
2019-05-16T17:31:08.393Z,11.88
2019-05-16T17:33:37.695Z,11.81
2019-05-16T17:36:01.984Z,11.88
2019-05-16T17:38:27.827Z,11.88
2019-05-16T17:40:53.667Z,11.88
2019-05-16T17:43:19.505Z,11.94
2019-05-16T17:45:46.979Z,11.94
2019-05-16T17:48:13.093Z,11.88
2019-05-16T17:50:38.923Z,11.81
2019-05-16T17:53:07.443Z,11.88
2019-05-16T17:55:33.432Z,11.88
2019-05-16T17:57:59.356Z,11.88
2019-05-16T18:00:28.949Z,11.88
2019-05-16T18:02:53.383Z,11.88
2019-05-16T18:05:19.985Z,12.00
2019-05-16T18:07:47.369Z,12.06
2019-05-16T18:10:15.485Z,12.13
2019-05-16T18:12:41.351Z,12.06
2019-05-16T18:15:08.612Z,12.00
2019-05-16T18:17:36.172Z,11.94
2019-05-16T18:20:06.722Z,11.94
2019-05-16T18:22:32.665Z,11.94
2019-05-16T18:24:58.695Z,11.94
2019-05-16T18:27:27.225Z,11.88
2019-05-16T18:29:52.438Z,11.94
2019-05-16T18:32:18.330Z,11.88
2019-05-16T18:34:44.296Z,11.88
2019-05-16T18:37:10.171Z,11.88
2019-05-16T18:39:47.996Z,11.81
2019-05-16T18:42:13.947Z,11.81
2019-05-16T18:44:39.791Z,11.81
2019-05-16T18:47:10.981Z,11.81
2019-05-16T18:49:33.370Z,11.81
2019-05-16T18:51:59.195Z,11.75
2019-05-16T18:54:26.643Z,11.81
2019-05-16T18:56:52.578Z,11.75
2019-05-16T18:59:18.410Z,11.81
2019-05-16T19:01:46.693Z,11.69
2019-05-16T19:04:13.401Z,11.75
2019-05-16T19:06:39.454Z,11.75
2019-05-16T19:09:07.158Z,11.75
2019-05-16T19:11:33.220Z,11.81
2019-05-16T19:13:59.446Z,11.75
2019-05-16T19:16:26.272Z,11.69
2019-05-16T19:18:52.188Z,11.81
2019-05-16T19:21:18.027Z,11.75
2019-05-16T19:23:43.888Z,11.75
2019-05-16T19:26:09.818Z,11.69
2019-05-16T19:28:37.360Z,11.69
2019-05-16T19:31:06.426Z,11.69
2019-05-16T19:33:31.630Z,11.69
2019-05-16T19:35:57.512Z,11.63
2019-05-16T19:38:23.596Z,11.69
2019-05-16T19:40:49.481Z,11.69
2019-05-16T19:43:17.352Z,11.69
2019-05-16T19:45:43.071Z,11.63
2019-05-16T19:48:09.031Z,11.63
2019-05-16T19:50:37.265Z,11.63
2019-05-16T19:53:02.888Z,11.63
2019-05-16T19:55:28.740Z,11.56
2019-05-16T19:57:54.601Z,11.56
2019-05-16T20:00:20.762Z,11.56
2019-05-16T20:02:47.343Z,11.63
2019-05-16T20:05:13.455Z,11.56
2019-05-16T20:07:39.298Z,11.63
2019-05-16T20:10:09.093Z,11.63
2019-05-16T20:12:34.195Z,11.63
2019-05-16T20:15:08.050Z,11.63
2019-05-16T20:17:27.931Z,11.56
2019-05-16T20:19:56.252Z,11.63
2019-05-16T20:22:21.607Z,11.56
2019-05-16T20:24:47.491Z,11.44
2019-05-16T20:27:13.425Z,11.44
2019-05-16T20:29:39.283Z,11.50
2019-05-16T20:32:07.569Z,11.50
2019-05-16T20:34:32.896Z,11.56
2019-05-16T20:36:58.865Z,11.50
2019-05-16T20:39:26.697Z,11.50
2019-05-16T20:41:52.491Z,11.56
2019-05-16T20:44:18.353Z,11.50
2019-05-16T20:46:44.198Z,11.44
2019-05-16T20:49:10.055Z,11.56
2019-05-16T20:51:37.624Z,11.44
2019-05-16T20:54:03.585Z,11.44
2019-05-16T20:56:29.523Z,11.50
2019-05-16T20:58:57.496Z,11.44
2019-05-16T21:01:23.100Z,11.44
2019-05-16T21:03:48.978Z,11.44
2019-05-16T21:06:16.927Z,11.44
2019-05-16T21:08:42.545Z,11.50
2019-05-16T21:11:08.409Z,11.38
2019-05-16T21:13:34.262Z,11.38
2019-05-16T21:16:00.351Z,11.44
2019-05-16T21:18:26.280Z,11.31
2019-05-16T21:20:52.336Z,11.25
2019-05-16T21:23:19.548Z,11.19
2019-05-16T21:25:46.674Z,11.19
2019-05-16T21:28:20.067Z,11.25
2019-05-16T21:30:47.411Z,11.25
2019-05-16T21:33:13.512Z,11.25
2019-05-16T21:35:39.665Z,11.12
2019-05-16T21:38:08.673Z,11.25
2019-05-16T21:40:33.283Z,11.19
2019-05-16T21:42:59.199Z,11.00
2019-05-16T21:45:28.469Z,11.06
2019-05-16T21:47:52.789Z,11.00
2019-05-16T21:50:19.221Z,11.00
2019-05-16T21:52:47.019Z,10.94
2019-05-16T21:55:13.504Z,10.88
2019-05-16T21:57:39.341Z,10.81
2019-05-16T22:00:10.331Z,10.81
2019-05-16T22:02:37.141Z,10.81
2019-05-16T22:05:06.329Z,10.81
2019-05-16T22:07:33.846Z,10.69
2019-05-16T22:09:59.795Z,10.75
2019-05-16T22:12:26.427Z,10.56
2019-05-16T22:14:52.593Z,10.75
2019-05-16T22:17:18.825Z,10.56
2019-05-16T22:19:46.801Z,10.69
2019-05-16T22:22:12.427Z,10.63
2019-05-16T22:24:38.330Z,10.75
2019-05-16T22:27:06.674Z,10.69
2019-05-16T22:29:31.995Z,10.69
2019-05-16T22:31:58.135Z,10.50
2019-05-16T22:34:26.346Z,10.56
2019-05-16T22:36:51.708Z,10.38
2019-05-16T22:39:17.530Z,10.50
2019-05-16T22:41:43.386Z,10.25
2019-05-16T22:44:09.258Z,10.44
2019-05-16T22:46:37.093Z,10.31
2019-05-16T22:49:02.880Z,10.25
2019-05-16T22:51:28.843Z,10.25
2019-05-16T22:53:58.503Z,10.25
2019-05-16T22:56:22.657Z,10.19
2019-05-16T22:58:48.573Z,10.13
2019-05-16T23:01:14.534Z,10.19
2019-05-16T23:03:40.451Z,10.19
2019-05-16T23:06:07.698Z,10.06
2019-05-16T23:08:33.885Z,10.19
2019-05-16T23:11:00.040Z,10.13
2019-05-16T23:13:26.551Z,10.13
2019-05-16T23:15:52.621Z,10.13
2019-05-16T23:18:18.470Z,10.06
2019-05-16T23:20:48.266Z,10.00
2019-05-16T23:23:14.271Z,10.06
2019-05-16T23:25:40.120Z,10.13
2019-05-16T23:28:07.798Z,9.81
2019-05-16T23:30:33.753Z,9.81
2019-05-16T23:33:01.491Z,9.94
2019-05-16T23:35:27.851Z,9.94
2019-05-16T23:37:53.716Z,9.94
2019-05-16T23:40:19.600Z,9.94
2019-05-16T23:42:46.525Z,9.94
2019-05-16T23:45:12.820Z,9.94
2019-05-16T23:47:38.688Z,9.75
2019-05-16T23:50:07.495Z,9.75
2019-05-16T23:52:33.580Z,9.88
2019-05-16T23:54:59.410Z,9.81
2019-05-16T23:57:26.599Z,9.75
2019-05-16T23:59:52.662Z,9.56
